<?xml version="1.0" encoding="UTF-8" standalone="no" ?>
<gpx xmlns="http://www.topografix.com/GPX/1/1" xmlns:xsi="http://www.w3.org/2001/XMLSchema-instance" xsi:schemaLocation="http://www.topografix.com/GPX/1/1 http://www.topografix.com/GPX/1/1/gpx.xsd" version="1.1" creator="VisuGPX - https://www.visugpx.com">
  <metadata>
    <name>Transcaucasie: Géorgie + Arménie</name>
  </metadata>
  <trk>
    <name><![CDATA[Tour d'Europe: étape 478]]></name>
    <extensions>
      <line xmlns="http://www.topografix.com/GPX/gpx_style/0/2">
        <color>008800</color>
        <width>4</width>
      </line>
    </extensions>
    <trkseg>
      <trkpt lat="41.00093" lon="44.64958">
        <ele>853.825641</ele>
        <time>2021-10-19T04:56:01.133Z</time>
      </trkpt>
      <trkpt lat="41.00091" lon="44.64827">
        <ele>853.620353</ele>
        <time>2021-10-19T05:05:12.274Z</time>
      </trkpt>
      <trkpt lat="41.00255" lon="44.64635">
        <ele>848.111454</ele>
        <time>2021-10-19T05:06:27.291Z</time>
      </trkpt>
      <trkpt lat="41.0017" lon="44.64599">
        <ele>838.447836</ele>
        <time>2021-10-19T05:07:32.276Z</time>
      </trkpt>
      <trkpt lat="41.00014" lon="44.64774">
        <ele>841.450952</ele>
        <time>2021-10-19T05:08:19.281Z</time>
      </trkpt>
      <trkpt lat="40.99957" lon="44.65064">
        <ele>847.311666</ele>
        <time>2021-10-19T05:09:31.273Z</time>
      </trkpt>
      <trkpt lat="40.99797" lon="44.65233">
        <ele>851.429895</ele>
        <time>2021-10-19T05:10:28.309Z</time>
      </trkpt>
      <trkpt lat="40.99607" lon="44.65382">
        <ele>854.459338</ele>
        <time>2021-10-19T05:11:47.292Z</time>
      </trkpt>
      <trkpt lat="40.99397" lon="44.65475">
        <ele>855.068735</ele>
        <time>2021-10-19T05:12:43.288Z</time>
      </trkpt>
      <trkpt lat="40.99181" lon="44.65513">
        <ele>853.37706</ele>
        <time>2021-10-19T05:13:42.271Z</time>
      </trkpt>
      <trkpt lat="40.98994" lon="44.65423">
        <ele>858.284833</ele>
        <time>2021-10-19T05:15:19.278Z</time>
      </trkpt>
      <trkpt lat="40.98813" lon="44.65251">
        <ele>859.709309</ele>
        <time>2021-10-19T05:16:14.280Z</time>
      </trkpt>
      <trkpt lat="40.98606" lon="44.65191">
        <ele>863.566888</ele>
        <time>2021-10-19T05:17:19.300Z</time>
      </trkpt>
      <trkpt lat="40.98464" lon="44.64971">
        <ele>864.252023</ele>
        <time>2021-10-19T05:18:22.264Z</time>
      </trkpt>
      <trkpt lat="40.98348" lon="44.64765">
        <ele>873.38112</ele>
        <time>2021-10-19T05:19:22.291Z</time>
      </trkpt>
      <trkpt lat="40.98242" lon="44.64525">
        <ele>876.001807</ele>
        <time>2021-10-19T05:20:28.264Z</time>
      </trkpt>
      <trkpt lat="40.98111" lon="44.64312">
        <ele>879.744714</ele>
        <time>2021-10-19T05:22:07.283Z</time>
      </trkpt>
      <trkpt lat="40.97935" lon="44.64134">
        <ele>883.719325</ele>
        <time>2021-10-19T05:23:27.268Z</time>
      </trkpt>
      <trkpt lat="40.9779" lon="44.63919">
        <ele>886.260613</ele>
        <time>2021-10-19T05:24:39.274Z</time>
      </trkpt>
      <trkpt lat="40.97577" lon="44.63691">
        <ele>875.882659</ele>
        <time>2021-10-19T05:25:15.284Z</time>
      </trkpt>
      <trkpt lat="40.97389" lon="44.63558">
        <ele>875.970771</ele>
        <time>2021-10-19T05:26:06.283Z</time>
      </trkpt>
      <trkpt lat="40.97175" lon="44.63668">
        <ele>880.862221</ele>
        <time>2021-10-19T05:27:09.293Z</time>
      </trkpt>
      <trkpt lat="40.96976" lon="44.63672">
        <ele>879.016496</ele>
        <time>2021-10-19T05:28:09.319Z</time>
      </trkpt>
      <trkpt lat="40.96765" lon="44.63692">
        <ele>889.080579</ele>
        <time>2021-10-19T05:29:21.285Z</time>
      </trkpt>
      <trkpt lat="40.96566" lon="44.63772">
        <ele>895.94435</ele>
        <time>2021-10-19T05:30:25.294Z</time>
      </trkpt>
      <trkpt lat="40.96355" lon="44.63751">
        <ele>894.750045</ele>
        <time>2021-10-19T05:31:34.284Z</time>
      </trkpt>
      <trkpt lat="40.96159" lon="44.63622">
        <ele>898.719705</ele>
        <time>2021-10-19T05:32:37.285Z</time>
      </trkpt>
      <trkpt lat="40.95945" lon="44.63499">
        <ele>906.649567</ele>
        <time>2021-10-19T05:33:52.285Z</time>
      </trkpt>
      <trkpt lat="40.95778" lon="44.63348">
        <ele>907.314896</ele>
        <time>2021-10-19T05:35:02.286Z</time>
      </trkpt>
      <trkpt lat="40.95686" lon="44.6312">
        <ele>919.268978</ele>
        <time>2021-10-19T05:36:36.275Z</time>
      </trkpt>
      <trkpt lat="40.95305" lon="44.6308">
        <ele>920.346422</ele>
        <time>2021-10-19T05:38:36.276Z</time>
      </trkpt>
      <trkpt lat="40.9487" lon="44.62939">
        <ele>935.952272</ele>
        <time>2021-10-19T05:41:59.267Z</time>
      </trkpt>
      <trkpt lat="40.94647" lon="44.62948">
        <ele>937.710103</ele>
        <time>2021-10-19T05:43:30.296Z</time>
      </trkpt>
      <trkpt lat="40.94376" lon="44.62975">
        <ele>926.437918</ele>
        <time>2021-10-19T05:44:10.294Z</time>
      </trkpt>
      <trkpt lat="40.94137" lon="44.62989">
        <ele>926.919406</ele>
        <time>2021-10-19T05:45:06.283Z</time>
      </trkpt>
      <trkpt lat="40.9393" lon="44.62913">
        <ele>933.610075</ele>
        <time>2021-10-19T05:46:09.274Z</time>
      </trkpt>
      <trkpt lat="40.93738" lon="44.62837">
        <ele>936.313535</ele>
        <time>2021-10-19T05:47:10.293Z</time>
      </trkpt>
      <trkpt lat="40.93546" lon="44.62714">
        <ele>945.871268</ele>
        <time>2021-10-19T05:48:43.285Z</time>
      </trkpt>
      <trkpt lat="40.93345" lon="44.62718">
        <ele>960.979579</ele>
        <time>2021-10-19T05:50:30.277Z</time>
      </trkpt>
      <trkpt lat="40.93142" lon="44.62646">
        <ele>969.249182</ele>
        <time>2021-10-19T05:52:18.272Z</time>
      </trkpt>
      <trkpt lat="40.92925" lon="44.62644">
        <ele>975.884117</ele>
        <time>2021-10-19T05:53:45.267Z</time>
      </trkpt>
      <trkpt lat="40.92731" lon="44.62501">
        <ele>968.96251</ele>
        <time>2021-10-19T05:54:25.285Z</time>
      </trkpt>
      <trkpt lat="40.9252" lon="44.62364">
        <ele>973.073399</ele>
        <time>2021-10-19T05:55:32.292Z</time>
      </trkpt>
      <trkpt lat="40.92305" lon="44.6233">
        <ele>971.952815</ele>
        <time>2021-10-19T05:57:09.305Z</time>
      </trkpt>
      <trkpt lat="40.92086" lon="44.6222">
        <ele>968.725579</ele>
        <time>2021-10-19T05:57:37.293Z</time>
      </trkpt>
      <trkpt lat="40.91835" lon="44.6216">
        <ele>967.758683</ele>
        <time>2021-10-19T05:58:28.262Z</time>
      </trkpt>
      <trkpt lat="40.91617" lon="44.62155">
        <ele>970.428853</ele>
        <time>2021-10-19T05:59:28.286Z</time>
      </trkpt>
      <trkpt lat="40.91453" lon="44.61979">
        <ele>978.896289</ele>
        <time>2021-10-19T06:00:43.292Z</time>
      </trkpt>
      <trkpt lat="40.91245" lon="44.61897">
        <ele>983.328201</ele>
        <time>2021-10-19T06:02:06.284Z</time>
      </trkpt>
      <trkpt lat="40.91049" lon="44.61986">
        <ele>987.873307</ele>
        <time>2021-10-19T06:03:22.287Z</time>
      </trkpt>
      <trkpt lat="40.90853" lon="44.62005">
        <ele>998.962504</ele>
        <time>2021-10-19T06:05:15.300Z</time>
      </trkpt>
      <trkpt lat="40.90637" lon="44.61987">
        <ele>1000.653933</ele>
        <time>2021-10-19T06:06:43.282Z</time>
      </trkpt>
      <trkpt lat="40.90448" lon="44.61833">
        <ele>994.262287</ele>
        <time>2021-10-19T06:07:06.285Z</time>
      </trkpt>
      <trkpt lat="40.90257" lon="44.62032">
        <ele>990.647597</ele>
        <time>2021-10-19T06:07:56.310Z</time>
      </trkpt>
      <trkpt lat="40.90033" lon="44.61986">
        <ele>998.280799</ele>
        <time>2021-10-19T06:09:25.291Z</time>
      </trkpt>
      <trkpt lat="40.89904" lon="44.61807">
        <ele>1008.675096</ele>
        <time>2021-10-19T06:10:40.286Z</time>
      </trkpt>
      <trkpt lat="40.8978" lon="44.61605">
        <ele>1010.393074</ele>
        <time>2021-10-19T06:11:47.268Z</time>
      </trkpt>
      <trkpt lat="40.89602" lon="44.61485">
        <ele>1012.835457</ele>
        <time>2021-10-19T06:13:08.290Z</time>
      </trkpt>
      <trkpt lat="40.89445" lon="44.61273">
        <ele>1021.492775</ele>
        <time>2021-10-19T06:14:31.288Z</time>
      </trkpt>
      <trkpt lat="40.89344" lon="44.61019">
        <ele>1037.453209</ele>
        <time>2021-10-19T06:15:55.291Z</time>
      </trkpt>
      <trkpt lat="40.89257" lon="44.60771">
        <ele>1038.837048</ele>
        <time>2021-10-19T06:17:09.286Z</time>
      </trkpt>
      <trkpt lat="40.89103" lon="44.60592">
        <ele>1040.458535</ele>
        <time>2021-10-19T06:19:08.292Z</time>
      </trkpt>
      <trkpt lat="40.89031" lon="44.60306">
        <ele>1040.795242</ele>
        <time>2021-10-19T06:25:57.286Z</time>
      </trkpt>
      <trkpt lat="40.88828" lon="44.60035">
        <ele>1033.705055</ele>
        <time>2021-10-19T06:26:39.286Z</time>
      </trkpt>
      <trkpt lat="40.88653" lon="44.59818">
        <ele>1034.409464</ele>
        <time>2021-10-19T06:27:27.292Z</time>
      </trkpt>
      <trkpt lat="40.88557" lon="44.59551">
        <ele>1034.29857</ele>
        <time>2021-10-19T06:28:27.288Z</time>
      </trkpt>
      <trkpt lat="40.88466" lon="44.59296">
        <ele>1044.325688</ele>
        <time>2021-10-19T06:30:01.307Z</time>
      </trkpt>
      <trkpt lat="40.88543" lon="44.59035">
        <ele>1050.58167</ele>
        <time>2021-10-19T06:31:34.285Z</time>
      </trkpt>
      <trkpt lat="40.88505" lon="44.58704">
        <ele>1052.911985</ele>
        <time>2021-10-19T06:32:16.272Z</time>
      </trkpt>
      <trkpt lat="40.88319" lon="44.58611">
        <ele>1050.41776</ele>
        <time>2021-10-19T06:33:19.283Z</time>
      </trkpt>
      <trkpt lat="40.8812" lon="44.58679">
        <ele>1050.808403</ele>
        <time>2021-10-19T06:34:30.295Z</time>
      </trkpt>
      <trkpt lat="40.8793" lon="44.58757">
        <ele>1059.91159</ele>
        <time>2021-10-19T06:36:03.295Z</time>
      </trkpt>
      <trkpt lat="40.87736" lon="44.58743">
        <ele>1072.305832</ele>
        <time>2021-10-19T06:38:02.290Z</time>
      </trkpt>
      <trkpt lat="40.87534" lon="44.58727">
        <ele>1083.839953</ele>
        <time>2021-10-19T06:39:34.295Z</time>
      </trkpt>
      <trkpt lat="40.87315" lon="44.58746">
        <ele>1083.878749</ele>
        <time>2021-10-19T06:40:38.286Z</time>
      </trkpt>
      <trkpt lat="40.87068" lon="44.58615">
        <ele>1074.881017</ele>
        <time>2021-10-19T06:41:16.290Z</time>
      </trkpt>
      <trkpt lat="40.86887" lon="44.58497">
        <ele>1090.818344</ele>
        <time>2021-10-19T06:43:09.303Z</time>
      </trkpt>
      <trkpt lat="40.86682" lon="44.58504">
        <ele>1106.432096</ele>
        <time>2021-10-19T06:45:47.275Z</time>
      </trkpt>
      <trkpt lat="40.86482" lon="44.58423">
        <ele>1110.056184</ele>
        <time>2021-10-19T06:48:20.285Z</time>
      </trkpt>
      <trkpt lat="40.86327" lon="44.5827">
        <ele>1127.899523</ele>
        <time>2021-10-19T06:50:47.310Z</time>
      </trkpt>
      <trkpt lat="40.86288" lon="44.58223">
        <ele>1138.01596</ele>
        <time>2021-10-19T06:53:05.332Z</time>
      </trkpt>
      <trkpt lat="40.86453" lon="44.5828">
        <ele>1153.31959</ele>
        <time>2021-10-19T06:55:12.294Z</time>
      </trkpt>
      <trkpt lat="40.86276" lon="44.58147">
        <ele>1171.535825</ele>
        <time>2021-10-19T06:57:53.303Z</time>
      </trkpt>
      <trkpt lat="40.86071" lon="44.58135">
        <ele>1185.230711</ele>
        <time>2021-10-19T07:00:09.312Z</time>
      </trkpt>
      <trkpt lat="40.85895" lon="44.58077">
        <ele>1197.673453</ele>
        <time>2021-10-19T07:02:34.291Z</time>
      </trkpt>
      <trkpt lat="40.85765" lon="44.57928">
        <ele>1202.682684</ele>
        <time>2021-10-19T07:04:53.301Z</time>
      </trkpt>
      <trkpt lat="40.85652" lon="44.57721">
        <ele>1213.72392</ele>
        <time>2021-10-19T07:07:06.297Z</time>
      </trkpt>
      <trkpt lat="40.85457" lon="44.57691">
        <ele>1230.446475</ele>
        <time>2021-10-19T07:09:41.286Z</time>
      </trkpt>
      <trkpt lat="40.85299" lon="44.57498">
        <ele>1234.922317</ele>
        <time>2021-10-19T07:11:02.307Z</time>
      </trkpt>
      <trkpt lat="40.85143" lon="44.57383">
        <ele>1244.757239</ele>
        <time>2021-10-19T07:13:27.289Z</time>
      </trkpt>
      <trkpt lat="40.84931" lon="44.57363">
        <ele>1253.395308</ele>
        <time>2021-10-19T07:15:18.308Z</time>
      </trkpt>
      <trkpt lat="40.84725" lon="44.57328">
        <ele>1255.067797</ele>
        <time>2021-10-19T07:16:58.285Z</time>
      </trkpt>
      <trkpt lat="40.84552" lon="44.5721">
        <ele>1263.791394</ele>
        <time>2021-10-19T07:19:30.311Z</time>
      </trkpt>
      <trkpt lat="40.84456" lon="44.56983">
        <ele>1284.716721</ele>
        <time>2021-10-19T07:22:12.307Z</time>
      </trkpt>
      <trkpt lat="40.84256" lon="44.56983">
        <ele>1290.094069</ele>
        <time>2021-10-19T07:24:02.295Z</time>
      </trkpt>
      <trkpt lat="40.84148" lon="44.56773">
        <ele>1291.895944</ele>
        <time>2021-10-19T07:25:33.307Z</time>
      </trkpt>
      <trkpt lat="40.83993" lon="44.56655">
        <ele>1298.766783</ele>
        <time>2021-10-19T07:27:54.290Z</time>
      </trkpt>
      <trkpt lat="40.84083" lon="44.56419">
        <ele>1304.977871</ele>
        <time>2021-10-19T07:29:06.295Z</time>
      </trkpt>
      <trkpt lat="40.8387" lon="44.56425">
        <ele>1304.658446</ele>
        <time>2021-10-19T07:30:04.303Z</time>
      </trkpt>
      <trkpt lat="40.8354" lon="44.56332">
        <ele>1282.708674</ele>
        <time>2021-10-19T07:30:45.301Z</time>
      </trkpt>
      <trkpt lat="40.83304" lon="44.56077">
        <ele>1263.568856</ele>
        <time>2021-10-19T07:31:23.295Z</time>
      </trkpt>
      <trkpt lat="40.8305" lon="44.55894">
        <ele>1254.836519</ele>
        <time>2021-10-19T07:32:05.304Z</time>
      </trkpt>
      <trkpt lat="40.82865" lon="44.5568">
        <ele>1260.972512</ele>
        <time>2021-10-19T07:33:16.307Z</time>
      </trkpt>
      <trkpt lat="40.82773" lon="44.55458">
        <ele>1273.809409</ele>
        <time>2021-10-19T07:35:08.302Z</time>
      </trkpt>
      <trkpt lat="40.82685" lon="44.55224">
        <ele>1289.824292</ele>
        <time>2021-10-19T07:37:24.306Z</time>
      </trkpt>
      <trkpt lat="40.82697" lon="44.54969">
        <ele>1309.260664</ele>
        <time>2021-10-19T07:39:36.283Z</time>
      </trkpt>
      <trkpt lat="40.8262" lon="44.54741">
        <ele>1312.171329</ele>
        <time>2021-10-19T07:42:16.288Z</time>
      </trkpt>
      <trkpt lat="40.82427" lon="44.54677">
        <ele>1333.881634</ele>
        <time>2021-10-19T07:45:12.292Z</time>
      </trkpt>
      <trkpt lat="40.8223" lon="44.54634">
        <ele>1353.000741</ele>
        <time>2021-10-19T07:59:45.283Z</time>
      </trkpt>
      <trkpt lat="40.82026" lon="44.54557">
        <ele>1356.379002</ele>
        <time>2021-10-19T08:01:37.306Z</time>
      </trkpt>
      <trkpt lat="40.81795" lon="44.54364">
        <ele>1337.053257</ele>
        <time>2021-10-19T08:02:19.326Z</time>
      </trkpt>
      <trkpt lat="40.81634" lon="44.5406">
        <ele>1316.582799</ele>
        <time>2021-10-19T08:02:59.319Z</time>
      </trkpt>
      <trkpt lat="40.81468" lon="44.5379">
        <ele>1300.433838</ele>
        <time>2021-10-19T08:03:32.305Z</time>
      </trkpt>
      <trkpt lat="40.81371" lon="44.53481">
        <ele>1292.74545</ele>
        <time>2021-10-19T08:04:12.311Z</time>
      </trkpt>
      <trkpt lat="40.81393" lon="44.53145">
        <ele>1294.679134</ele>
        <time>2021-10-19T08:05:02.309Z</time>
      </trkpt>
      <trkpt lat="40.81485" lon="44.52903">
        <ele>1297.610058</ele>
        <time>2021-10-19T08:06:10.347Z</time>
      </trkpt>
      <trkpt lat="40.81523" lon="44.52644">
        <ele>1303.973086</ele>
        <time>2021-10-19T08:07:14.297Z</time>
      </trkpt>
      <trkpt lat="40.81586" lon="44.52368">
        <ele>1306.605661</ele>
        <time>2021-10-19T08:08:21.304Z</time>
      </trkpt>
      <trkpt lat="40.81624" lon="44.52068">
        <ele>1304.119337</ele>
        <time>2021-10-19T08:09:29.308Z</time>
      </trkpt>
      <trkpt lat="40.8162" lon="44.51808">
        <ele>1312.173946</ele>
        <time>2021-10-19T08:10:37.292Z</time>
      </trkpt>
      <trkpt lat="40.81579" lon="44.51526">
        <ele>1314.693304</ele>
        <time>2021-10-19T08:11:40.311Z</time>
      </trkpt>
      <trkpt lat="40.81529" lon="44.51253">
        <ele>1313.648401</ele>
        <time>2021-10-19T08:12:41.346Z</time>
      </trkpt>
      <trkpt lat="40.81443" lon="44.50988">
        <ele>1315.734297</ele>
        <time>2021-10-19T08:13:50.306Z</time>
      </trkpt>
      <trkpt lat="40.81432" lon="44.50703">
        <ele>1318.071035</ele>
        <time>2021-10-19T08:15:16.291Z</time>
      </trkpt>
      <trkpt lat="40.81493" lon="44.50402">
        <ele>1317.915718</ele>
        <time>2021-10-19T08:16:16.295Z</time>
      </trkpt>
      <trkpt lat="40.81586" lon="44.50142">
        <ele>1321.327391</ele>
        <time>2021-10-19T08:17:14.309Z</time>
      </trkpt>
      <trkpt lat="40.8166" lon="44.49884">
        <ele>1324.006231</ele>
        <time>2021-10-19T08:18:21.302Z</time>
      </trkpt>
      <trkpt lat="40.81706" lon="44.49621">
        <ele>1329.190157</ele>
        <time>2021-10-19T08:19:26.305Z</time>
      </trkpt>
      <trkpt lat="40.81576" lon="44.49497">
        <ele>1335.209252</ele>
        <time>2021-10-19T08:20:48.310Z</time>
      </trkpt>
      <trkpt lat="40.81377" lon="44.49441">
        <ele>1334.804857</ele>
        <time>2021-10-19T08:21:42.309Z</time>
      </trkpt>
      <trkpt lat="40.81179" lon="44.4956">
        <ele>1334.395987</ele>
        <time>2021-10-19T08:22:41.303Z</time>
      </trkpt>
      <trkpt lat="40.80973" lon="44.49623">
        <ele>1337.629523</ele>
        <time>2021-10-19T08:23:49.324Z</time>
      </trkpt>
      <trkpt lat="40.80771" lon="44.49673">
        <ele>1346.236901</ele>
        <time>2021-10-19T08:25:16.310Z</time>
      </trkpt>
      <trkpt lat="40.8056" lon="44.49703">
        <ele>1355.792639</ele>
        <time>2021-10-19T08:26:29.289Z</time>
      </trkpt>
      <trkpt lat="40.80376" lon="44.49726">
        <ele>1356.238639</ele>
        <time>2021-10-19T08:27:56.294Z</time>
      </trkpt>
      <trkpt lat="40.8019" lon="44.49834">
        <ele>1357.009324</ele>
        <time>2021-10-19T08:29:10.295Z</time>
      </trkpt>
      <trkpt lat="40.79997" lon="44.49981">
        <ele>1361.404455</ele>
        <time>2021-10-19T08:30:26.314Z</time>
      </trkpt>
      <trkpt lat="40.79863" lon="44.50187">
        <ele>1369.497699</ele>
        <time>2021-10-19T08:31:28.303Z</time>
      </trkpt>
      <trkpt lat="40.7973" lon="44.50407">
        <ele>1376.232587</ele>
        <time>2021-10-19T08:32:55.309Z</time>
      </trkpt>
      <trkpt lat="40.79609" lon="44.50625">
        <ele>1383.115904</ele>
        <time>2021-10-19T08:34:31.311Z</time>
      </trkpt>
      <trkpt lat="40.79505" lon="44.50851">
        <ele>1384.890792</ele>
        <time>2021-10-19T08:36:01.308Z</time>
      </trkpt>
      <trkpt lat="40.79382" lon="44.5109">
        <ele>1379.283431</ele>
        <time>2021-10-19T08:37:27.314Z</time>
      </trkpt>
      <trkpt lat="40.7927" lon="44.51328">
        <ele>1385.351856</ele>
        <time>2021-10-19T08:38:43.302Z</time>
      </trkpt>
      <trkpt lat="40.79168" lon="44.51554">
        <ele>1394.58344</ele>
        <time>2021-10-19T08:40:25.298Z</time>
      </trkpt>
      <trkpt lat="40.79052" lon="44.51788">
        <ele>1400.548409</ele>
        <time>2021-10-19T08:42:02.309Z</time>
      </trkpt>
      <trkpt lat="40.78956" lon="44.52038">
        <ele>1407.871631</ele>
        <time>2021-10-19T08:43:17.279Z</time>
      </trkpt>
      <trkpt lat="40.7887" lon="44.52289">
        <ele>1425.539071</ele>
        <time>2021-10-19T08:45:10.307Z</time>
      </trkpt>
      <trkpt lat="40.78782" lon="44.52535">
        <ele>1434.183969</ele>
        <time>2021-10-19T08:47:03.322Z</time>
      </trkpt>
      <trkpt lat="40.78691" lon="44.52765">
        <ele>1431.225126</ele>
        <time>2021-10-19T08:48:29.292Z</time>
      </trkpt>
      <trkpt lat="40.78558" lon="44.52992">
        <ele>1431.65396</ele>
        <time>2021-10-19T08:49:38.306Z</time>
      </trkpt>
      <trkpt lat="40.78436" lon="44.53238">
        <ele>1435.525081</ele>
        <time>2021-10-19T08:50:50.313Z</time>
      </trkpt>
      <trkpt lat="40.78369" lon="44.53483">
        <ele>1444.017906</ele>
        <time>2021-10-19T08:52:17.311Z</time>
      </trkpt>
      <trkpt lat="40.78304" lon="44.53751">
        <ele>1451.904687</ele>
        <time>2021-10-19T08:53:55.311Z</time>
      </trkpt>
      <trkpt lat="40.78242" lon="44.54005">
        <ele>1457.422093</ele>
        <time>2021-10-19T08:55:29.285Z</time>
      </trkpt>
      <trkpt lat="40.78206" lon="44.54277">
        <ele>1466.770487</ele>
        <time>2021-10-19T08:57:20.305Z</time>
      </trkpt>
      <trkpt lat="40.78217" lon="44.54551">
        <ele>1479.859282</ele>
        <time>2021-10-19T09:06:00.292Z</time>
      </trkpt>
      <trkpt lat="40.78182" lon="44.54795">
        <ele>1486.658922</ele>
        <time>2021-10-19T09:08:07.297Z</time>
      </trkpt>
      <trkpt lat="40.78065" lon="44.55011">
        <ele>1505.459473</ele>
        <time>2021-10-19T09:10:36.304Z</time>
      </trkpt>
      <trkpt lat="40.7793" lon="44.55209">
        <ele>1524.597793</ele>
        <time>2021-10-19T09:13:07.316Z</time>
      </trkpt>
      <trkpt lat="40.77832" lon="44.55432">
        <ele>1542.215235</ele>
        <time>2021-10-19T09:15:36.307Z</time>
      </trkpt>
      <trkpt lat="40.77739" lon="44.55674">
        <ele>1557.601861</ele>
        <time>2021-10-19T09:18:13.306Z</time>
      </trkpt>
      <trkpt lat="40.77655" lon="44.559">
        <ele>1570.402983</ele>
        <time>2021-10-19T09:20:44.320Z</time>
      </trkpt>
      <trkpt lat="40.77606" lon="44.5616">
        <ele>1586.83691</ele>
        <time>2021-10-19T09:23:21.289Z</time>
      </trkpt>
      <trkpt lat="40.77539" lon="44.56414">
        <ele>1599.048295</ele>
        <time>2021-10-19T09:25:33.299Z</time>
      </trkpt>
      <trkpt lat="40.77474" lon="44.5666">
        <ele>1605.183681</ele>
        <time>2021-10-19T09:27:30.301Z</time>
      </trkpt>
      <trkpt lat="40.77387" lon="44.56904">
        <ele>1618.229232</ele>
        <time>2021-10-19T09:29:31.312Z</time>
      </trkpt>
      <trkpt lat="40.77311" lon="44.57161">
        <ele>1627.916508</ele>
        <time>2021-10-19T09:31:35.293Z</time>
      </trkpt>
      <trkpt lat="40.77341" lon="44.57416">
        <ele>1621.626703</ele>
        <time>2021-10-19T09:33:08.299Z</time>
      </trkpt>
      <trkpt lat="40.77378" lon="44.57689">
        <ele>1631.058959</ele>
        <time>2021-10-19T09:34:47.295Z</time>
      </trkpt>
      <trkpt lat="40.77428" lon="44.57953">
        <ele>1643.925425</ele>
        <time>2021-10-19T09:41:43.318Z</time>
      </trkpt>
      <trkpt lat="40.77448" lon="44.58218">
        <ele>1655.890614</ele>
        <time>2021-10-19T09:43:59.335Z</time>
      </trkpt>
      <trkpt lat="40.77545" lon="44.58448">
        <ele>1668.917012</ele>
        <time>2021-10-19T09:46:16.353Z</time>
      </trkpt>
      <trkpt lat="40.77494" lon="44.58692">
        <ele>1681.383632</ele>
        <time>2021-10-19T09:48:29.300Z</time>
      </trkpt>
      <trkpt lat="40.7741" lon="44.58943">
        <ele>1692.226683</ele>
        <time>2021-10-19T09:50:45.337Z</time>
      </trkpt>
      <trkpt lat="40.77326" lon="44.59189">
        <ele>1710.026549</ele>
        <time>2021-10-19T09:53:14.294Z</time>
      </trkpt>
      <trkpt lat="40.77286" lon="44.59434">
        <ele>1727.669518</ele>
        <time>2021-10-19T09:55:53.322Z</time>
      </trkpt>
      <trkpt lat="40.77214" lon="44.59676">
        <ele>1745.459089</ele>
        <time>2021-10-19T09:58:44.305Z</time>
      </trkpt>
      <trkpt lat="40.77163" lon="44.59922">
        <ele>1756.504062</ele>
        <time>2021-10-19T10:01:17.311Z</time>
      </trkpt>
      <trkpt lat="40.77226" lon="44.60168">
        <ele>1766.563012</ele>
        <time>2021-10-19T10:03:22.319Z</time>
      </trkpt>
      <trkpt lat="40.77264" lon="44.6043">
        <ele>1778.8568</ele>
        <time>2021-10-19T10:05:48.318Z</time>
      </trkpt>
      <trkpt lat="40.77267" lon="44.60685">
        <ele>1788.219612</ele>
        <time>2021-10-19T10:08:12.321Z</time>
      </trkpt>
      <trkpt lat="40.77284" lon="44.60959">
        <ele>1793.909019</ele>
        <time>2021-10-19T10:14:00.314Z</time>
      </trkpt>
      <trkpt lat="40.77266" lon="44.61228">
        <ele>1800.850523</ele>
        <time>2021-10-19T10:16:07.312Z</time>
      </trkpt>
      <trkpt lat="40.772" lon="44.61478">
        <ele>1809.889993</ele>
        <time>2021-10-19T10:17:33.315Z</time>
      </trkpt>
      <trkpt lat="40.77066" lon="44.61704">
        <ele>1810.815452</ele>
        <time>2021-10-19T10:18:55.346Z</time>
      </trkpt>
      <trkpt lat="40.76966" lon="44.61926">
        <ele>1814.262055</ele>
        <time>2021-10-19T10:20:31.348Z</time>
      </trkpt>
      <trkpt lat="40.76853" lon="44.62156">
        <ele>1823.319544</ele>
        <time>2021-10-19T10:22:17.313Z</time>
      </trkpt>
      <trkpt lat="40.76731" lon="44.62363">
        <ele>1839.562956</ele>
        <time>2021-10-19T10:24:50.319Z</time>
      </trkpt>
      <trkpt lat="40.76617" lon="44.62568">
        <ele>1854.94193</ele>
        <time>2021-10-19T10:27:35.325Z</time>
      </trkpt>
      <trkpt lat="40.76546" lon="44.62814">
        <ele>1866.371465</ele>
        <time>2021-10-19T10:30:13.313Z</time>
      </trkpt>
      <trkpt lat="40.76468" lon="44.63057">
        <ele>1876.2886</ele>
        <time>2021-10-19T10:32:49.324Z</time>
      </trkpt>
      <trkpt lat="40.76348" lon="44.63266">
        <ele>1887.430472</ele>
        <time>2021-10-19T10:34:34.320Z</time>
      </trkpt>
      <trkpt lat="40.76189" lon="44.63467">
        <ele>1890.858077</ele>
        <time>2021-10-19T10:36:08.308Z</time>
      </trkpt>
      <trkpt lat="40.7601" lon="44.63671">
        <ele>1877.037307</ele>
        <time>2021-10-19T10:42:04.324Z</time>
      </trkpt>
      <trkpt lat="40.75766" lon="44.63911">
        <ele>1867.126641</ele>
        <time>2021-10-19T10:42:46.318Z</time>
      </trkpt>
      <trkpt lat="40.75652" lon="44.64303">
        <ele>1859.583431</ele>
        <time>2021-10-19T10:43:28.330Z</time>
      </trkpt>
      <trkpt lat="40.75507" lon="44.64595">
        <ele>1848.035086</ele>
        <time>2021-10-19T10:44:08.320Z</time>
      </trkpt>
      <trkpt lat="40.75289" lon="44.64777">
        <ele>1845.898099</ele>
        <time>2021-10-19T10:44:50.355Z</time>
      </trkpt>
      <trkpt lat="40.75085" lon="44.64963">
        <ele>1849.349292</ele>
        <time>2021-10-19T10:45:45.323Z</time>
      </trkpt>
      <trkpt lat="40.74943" lon="44.65198">
        <ele>1851.752707</ele>
        <time>2021-10-19T10:46:37.321Z</time>
      </trkpt>
      <trkpt lat="40.74854" lon="44.6557">
        <ele>1845.902645</ele>
        <time>2021-10-19T10:47:19.350Z</time>
      </trkpt>
      <trkpt lat="40.74785" lon="44.65877">
        <ele>1843.615185</ele>
        <time>2021-10-19T10:47:59.369Z</time>
      </trkpt>
      <trkpt lat="40.74721" lon="44.66143">
        <ele>1844.296146</ele>
        <time>2021-10-19T10:48:43.321Z</time>
      </trkpt>
      <trkpt lat="40.74658" lon="44.66417">
        <ele>1846.329154</ele>
        <time>2021-10-19T10:49:38.317Z</time>
      </trkpt>
      <trkpt lat="40.74582" lon="44.66668">
        <ele>1850.754829</ele>
        <time>2021-10-19T10:51:13.322Z</time>
      </trkpt>
      <trkpt lat="40.74483" lon="44.66928">
        <ele>1853.257866</ele>
        <time>2021-10-19T10:52:24.302Z</time>
      </trkpt>
      <trkpt lat="40.74376" lon="44.67213">
        <ele>1854.42386</ele>
        <time>2021-10-19T10:53:27.322Z</time>
      </trkpt>
      <trkpt lat="40.74284" lon="44.67489">
        <ele>1853.554019</ele>
        <time>2021-10-19T10:54:08.368Z</time>
      </trkpt>
      <trkpt lat="40.74142" lon="44.6786">
        <ele>1844.622581</ele>
        <time>2021-10-19T10:54:49.304Z</time>
      </trkpt>
      <trkpt lat="40.74099" lon="44.68139">
        <ele>1833.916947</ele>
        <time>2021-10-19T10:55:12.325Z</time>
      </trkpt>
      <trkpt lat="40.74102" lon="44.6847">
        <ele>1833.625649</ele>
        <time>2021-10-19T10:55:52.320Z</time>
      </trkpt>
      <trkpt lat="40.7404" lon="44.68773">
        <ele>1833.733205</ele>
        <time>2021-10-19T10:56:45.334Z</time>
      </trkpt>
      <trkpt lat="40.73913" lon="44.69081">
        <ele>1824.260905</ele>
        <time>2021-10-19T10:57:26.312Z</time>
      </trkpt>
      <trkpt lat="40.73747" lon="44.69291">
        <ele>1816.230247</ele>
        <time>2021-10-19T10:57:52.367Z</time>
      </trkpt>
      <trkpt lat="40.73545" lon="44.69451">
        <ele>1805.404508</ele>
        <time>2021-10-19T10:58:18.339Z</time>
      </trkpt>
      <trkpt lat="40.73428" lon="44.69661">
        <ele>1795.604082</ele>
        <time>2021-10-19T10:58:38.313Z</time>
      </trkpt>
      <trkpt lat="40.73324" lon="44.69931">
        <ele>1786.032205</ele>
        <time>2021-10-19T11:03:43.322Z</time>
      </trkpt>
      <trkpt lat="40.73266" lon="44.70249">
        <ele>1778.190231</ele>
        <time>2021-10-19T11:04:14.322Z</time>
      </trkpt>
      <trkpt lat="40.73215" lon="44.70552">
        <ele>1775.428407</ele>
        <time>2021-10-19T11:04:54.324Z</time>
      </trkpt>
      <trkpt lat="40.73082" lon="44.70815">
        <ele>1771.298154</ele>
        <time>2021-10-19T11:05:30.336Z</time>
      </trkpt>
      <trkpt lat="40.72954" lon="44.71037">
        <ele>1763.069481</ele>
        <time>2021-10-19T11:05:50.349Z</time>
      </trkpt>
      <trkpt lat="40.72853" lon="44.71315">
        <ele>1757.324566</ele>
        <time>2021-10-19T11:06:16.331Z</time>
      </trkpt>
      <trkpt lat="40.72753" lon="44.71662">
        <ele>1753.352718</ele>
        <time>2021-10-19T11:06:58.332Z</time>
      </trkpt>
      <trkpt lat="40.72594" lon="44.7193">
        <ele>1748.063094</ele>
        <time>2021-10-19T11:07:38.337Z</time>
      </trkpt>
      <trkpt lat="40.7245" lon="44.72141">
        <ele>1746.518208</ele>
        <time>2021-10-19T11:08:20.324Z</time>
      </trkpt>
      <trkpt lat="40.72293" lon="44.72389">
        <ele>1745.985185</ele>
        <time>2021-10-19T11:09:02.331Z</time>
      </trkpt>
      <trkpt lat="40.7213" lon="44.72651">
        <ele>1741.428002</ele>
        <time>2021-10-19T11:09:42.318Z</time>
      </trkpt>
      <trkpt lat="40.71895" lon="44.72945">
        <ele>1722.053442</ele>
        <time>2021-10-19T11:10:24.310Z</time>
      </trkpt>
      <trkpt lat="40.71849" lon="44.73315">
        <ele>1704.146969</ele>
        <time>2021-10-19T11:11:02.334Z</time>
      </trkpt>
      <trkpt lat="40.71837" lon="44.73627">
        <ele>1681.281964</ele>
        <time>2021-10-19T11:11:28.312Z</time>
      </trkpt>
      <trkpt lat="40.71703" lon="44.7385">
        <ele>1662.72142</ele>
        <time>2021-10-19T11:11:50.353Z</time>
      </trkpt>
      <trkpt lat="40.71653" lon="44.74142">
        <ele>1652.73983</ele>
        <time>2021-10-19T11:12:10.319Z</time>
      </trkpt>
      <trkpt lat="40.71624" lon="44.74443">
        <ele>1646.923758</ele>
        <time>2021-10-19T11:12:31.350Z</time>
      </trkpt>
      <trkpt lat="40.71609" lon="44.74785">
        <ele>1645.549865</ele>
        <time>2021-10-19T11:13:06.323Z</time>
      </trkpt>
      <trkpt lat="40.71595" lon="44.75099">
        <ele>1642.718193</ele>
        <time>2021-10-19T11:13:46.321Z</time>
      </trkpt>
      <trkpt lat="40.71641" lon="44.75511">
        <ele>1622.08813</ele>
        <time>2021-10-19T11:14:27.321Z</time>
      </trkpt>
      <trkpt lat="40.71648" lon="44.75951">
        <ele>1590.766723</ele>
        <time>2021-10-19T11:15:07.330Z</time>
      </trkpt>
      <trkpt lat="40.71594" lon="44.76374">
        <ele>1557.807159</ele>
        <time>2021-10-19T11:15:49.315Z</time>
      </trkpt>
      <trkpt lat="40.7156" lon="44.76785">
        <ele>1530.264153</ele>
        <time>2021-10-19T11:16:31.332Z</time>
      </trkpt>
      <trkpt lat="40.71534" lon="44.77161">
        <ele>1505.211198</ele>
        <time>2021-10-19T11:17:10.332Z</time>
      </trkpt>
      <trkpt lat="40.71616" lon="44.77562">
        <ele>1482.295453</ele>
        <time>2021-10-19T11:17:47.328Z</time>
      </trkpt>
      <trkpt lat="40.71641" lon="44.77952">
        <ele>1464.249756</ele>
        <time>2021-10-19T11:18:26.327Z</time>
      </trkpt>
      <trkpt lat="40.71824" lon="44.78101">
        <ele>1454.091086</ele>
        <time>2021-10-19T11:18:48.324Z</time>
      </trkpt>
      <trkpt lat="40.72048" lon="44.78392">
        <ele>1449.35893</ele>
        <time>2021-10-19T11:19:27.369Z</time>
      </trkpt>
      <trkpt lat="40.72008" lon="44.78672">
        <ele>1439.153245</ele>
        <time>2021-10-19T11:19:50.322Z</time>
      </trkpt>
      <trkpt lat="40.71925" lon="44.79081">
        <ele>1420.395303</ele>
        <time>2021-10-19T11:20:32.309Z</time>
      </trkpt>
      <trkpt lat="40.719" lon="44.79447">
        <ele>1408.015542</ele>
        <time>2021-10-19T11:21:05.334Z</time>
      </trkpt>
      <trkpt lat="40.71949" lon="44.79812">
        <ele>1409.123145</ele>
        <time>2021-10-19T11:21:44.323Z</time>
      </trkpt>
      <trkpt lat="40.72083" lon="44.80119">
        <ele>1415.363478</ele>
        <time>2021-10-19T11:22:26.333Z</time>
      </trkpt>
      <trkpt lat="40.72312" lon="44.80296">
        <ele>1399.600512</ele>
        <time>2021-10-19T11:23:00.336Z</time>
      </trkpt>
      <trkpt lat="40.72427" lon="44.8051">
        <ele>1392.755526</ele>
        <time>2021-10-19T11:23:22.324Z</time>
      </trkpt>
      <trkpt lat="40.72537" lon="44.80835">
        <ele>1385.153132</ele>
        <time>2021-10-19T11:24:01.328Z</time>
      </trkpt>
      <trkpt lat="40.72732" lon="44.81134">
        <ele>1379.070101</ele>
        <time>2021-10-19T11:24:40.325Z</time>
      </trkpt>
      <trkpt lat="40.72946" lon="44.81331">
        <ele>1369.547056</ele>
        <time>2021-10-19T11:25:11.325Z</time>
      </trkpt>
      <trkpt lat="40.73127" lon="44.8153">
        <ele>1360.009406</ele>
        <time>2021-10-19T11:25:37.328Z</time>
      </trkpt>
      <trkpt lat="40.73402" lon="44.81774">
        <ele>1348.072525</ele>
        <time>2021-10-19T11:26:17.335Z</time>
      </trkpt>
      <trkpt lat="40.73629" lon="44.82053">
        <ele>1335.992308</ele>
        <time>2021-10-19T11:26:59.310Z</time>
      </trkpt>
      <trkpt lat="40.73882" lon="44.82168">
        <ele>1327.027458</ele>
        <time>2021-10-19T11:27:35.329Z</time>
      </trkpt>
      <trkpt lat="40.73988" lon="44.82414">
        <ele>1327.256594</ele>
        <time>2021-10-19T11:28:15.328Z</time>
      </trkpt>
      <trkpt lat="40.74027" lon="44.82715">
        <ele>1326.33877</ele>
        <time>2021-10-19T11:28:57.356Z</time>
      </trkpt>
      <trkpt lat="40.74061" lon="44.82989">
        <ele>1327.569414</ele>
        <time>2021-10-19T11:30:02.334Z</time>
      </trkpt>
      <trkpt lat="40.74079" lon="44.83298">
        <ele>1329.105191</ele>
        <time>2021-10-19T11:31:07.372Z</time>
      </trkpt>
      <trkpt lat="40.74113" lon="44.83611">
        <ele>1325.291401</ele>
        <time>2021-10-19T11:32:02.327Z</time>
      </trkpt>
      <trkpt lat="40.74099" lon="44.8396">
        <ele>1309.801675</ele>
        <time>2021-10-19T11:32:46.314Z</time>
      </trkpt>
      <trkpt lat="40.74087" lon="44.84349">
        <ele>1292.945152</ele>
        <time>2021-10-19T11:33:27.326Z</time>
      </trkpt>
      <trkpt lat="40.74065" lon="44.84726">
        <ele>1287.890344</ele>
        <time>2021-10-19T11:34:09.358Z</time>
      </trkpt>
      <trkpt lat="40.74016" lon="44.85064">
        <ele>1284.017302</ele>
        <time>2021-10-19T11:34:49.342Z</time>
      </trkpt>
      <trkpt lat="40.73972" lon="44.85394">
        <ele>1270.024067</ele>
        <time>2021-10-19T11:35:31.318Z</time>
      </trkpt>
      <trkpt lat="40.73966" lon="44.85743">
        <ele>1250.228636</ele>
        <time>2021-10-19T11:36:11.315Z</time>
      </trkpt>
      <trkpt lat="40.73999" lon="44.86132">
        <ele>1241.901772</ele>
        <time>2021-10-19T11:36:53.316Z</time>
      </trkpt>
      <trkpt lat="40.74054" lon="44.86421">
        <ele>1243.456845</ele>
        <time>2021-10-19T11:37:42.331Z</time>
      </trkpt>
      <trkpt lat="40.74074" lon="44.86653">
        <ele>1244.263997</ele>
        <time>2021-10-19T11:38:23.315Z</time>
      </trkpt>
      <trkpt lat="40.73943" lon="44.8658">
        <ele>1255.932666</ele>
        <time>2021-10-19T11:42:11.333Z</time>
      </trkpt>
      <trkpt lat="40.73906" lon="44.86723">
        <ele>1271.884461</ele>
        <time>2021-10-19T11:44:29.324Z</time>
      </trkpt>
      <trkpt lat="40.73868" lon="44.86692">
        <ele>1281.048011</ele>
        <time>2021-10-19T11:46:20.336Z</time>
      </trkpt>
      <trkpt lat="40.7395" lon="44.86969">
        <ele>1283.906598</ele>
        <time>2021-10-19T11:47:38.334Z</time>
      </trkpt>
      <trkpt lat="40.7409" lon="44.87143">
        <ele>1287.589436</ele>
        <time>2021-10-19T11:49:02.337Z</time>
      </trkpt>
      <trkpt lat="40.74295" lon="44.87236">
        <ele>1289.021014</ele>
        <time>2021-10-19T11:50:25.322Z</time>
      </trkpt>
      <trkpt lat="40.74463" lon="44.87381">
        <ele>1292.672141</ele>
        <time>2021-10-19T11:52:31.331Z</time>
      </trkpt>
      <trkpt lat="40.74548" lon="44.874">
        <ele>1292.672141</ele>
        <time>2021-10-19T12:31:58.996Z</time>
      </trkpt>
    </trkseg>
  </trk>
</gpx>